Time;durP1;ratioP1;P1;durP2;ratioP2;P2;SDS_P1;SDS_P2;PMS_P1;PMS_P2;Temp;Humidity;BMP_temperature;BMP_pressure;BME280_temperature;BME280_humidity;BME280_pressure;Samples;Min_cycle;Max_cycle;Signal;HPM_P1;HPM_P2
2022/10/29 00:01:50;;;;;;;5.82;2.20;;;15.20;75.50;;;;;;4946528;28;20597;-75
2022/10/29 00:04:16;;;;;;;9.23;2.85;;;15.20;75.50;;;;;;4926692;29;20568;-75
2022/10/29 00:06:42;;;;;;;8.68;2.80;;;15.20;75.50;;;;;;4930145;29;20320;-75
2022/10/29 00:09:09;;;;;;;9.88;2.17;;;15.20;75.50;;;;;;4946010;28;20072;-76
2022/10/29 00:11:35;;;;;;;7.35;2.60;;;15.20;75.50;;;;;;4929373;29;20542;-76
2022/10/29 00:14:02;;;;;;;7.97;2.40;;;15.20;75.50;;;;;;4947274;28;20027;-75
2022/10/29 00:16:33;;;;;;;7.43;2.70;;;15.20;75.50;;;;;;4940902;29;20027;-75
2022/10/29 00:18:59;;;;;;;5.72;1.60;;;15.20;75.40;;;;;;4928776;29;20042;-75
2022/10/29 00:21:26;;;;;;;4.40;1.67;;;15.20;75.40;;;;;;4929790;29;20502;-76
2022/10/29 00:23:52;;;;;;;7.28;2.05;;;15.30;75.60;;;;;;4926950;29;20066;-76
2022/10/29 00:26:20;;;;;;;8.32;1.92;;;15.20;75.40;;;;;;4929515;29;20049;-76
2022/10/29 00:28:50;;;;;;;8.63;1.92;;;15.30;75.60;;;;;;4942781;28;20043;-75
2022/10/29 00:31:17;;;;;;;7.20;1.55;;;15.20;75.40;;;;;;4945125;29;20179;-76
2022/10/29 00:33:44;;;;;;;10.77;2.55;;;15.20;75.40;;;;;;4931623;29;20099;-75
2022/10/29 00:36:17;;;;;;;6.50;1.95;;;15.20;75.40;;;;;;4913590;29;20027;-75
2022/10/29 00:38:43;;;;;;;10.75;2.78;;;15.20;75.40;;;;;;4916069;29;20046;-75
2022/10/29 00:41:19;;;;;;;6.05;2.15;;;15.20;75.40;;;;;;4947030;28;20172;-76
2022/10/29 00:43:51;;;;;;;6.60;2.10;;;15.20;75.40;;;;;;4927895;29;20047;-75
2022/10/29 00:46:28;;;;;;;12.32;2.90;;;15.20;75.40;;;;;;4929806;29;20057;-76
2022/10/29 00:48:55;;;;;;;5.55;1.52;;;15.20;75.50;;;;;;4945014;28;20035;-75
2022/10/29 00:51:22;;;;;;;5.38;2.13;;;15.20;75.50;;;;;;4913654;29;20035;-75
2022/10/29 00:53:54;;;;;;;6.47;1.73;;;15.20;75.50;;;;;;4946418;29;20043;-75
2022/10/29 00:56:21;;;;;;;8.43;2.63;;;15.20;75.50;;;;;;4925691;29;20043;-76
2022/10/29 00:58:48;;;;;;;4.75;1.83;;;15.20;75.50;;;;;;4927135;29;20050;-75
2022/10/29 01:01:14;;;;;;;4.78;1.75;;;15.20;75.50;;;;;;4945861;29;20043;-75
2022/10/29 01:03:40;;;;;;;8.18;1.98;;;15.20;75.60;;;;;;4938914;29;20035;-75
2022/10/29 01:06:07;;;;;;;10.50;2.40;;;15.20;75.50;;;;;;4922108;29;20027;-75
2022/10/29 01:08:33;;;;;;;7.57;2.40;;;15.20;75.50;;;;;;4925533;29;20045;-76
2022/10/29 01:11:08;;;;;;;6.82;2.25;;;15.20;75.50;;;;;;4922154;29;20423;-75
2022/10/29 01:14:02;;;;;;;4.72;1.85;;;15.20;75.60;;;;;;4928345;29;20041;-75
2022/10/29 01:16:43;;;;;;;3.70;1.40;;;15.20;75.60;;;;;;4944459;29;20074;-76
2022/10/29 01:19:39;;;;;;;8.70;1.42;;;15.20;75.60;;;;;;4945022;29;20027;-75
2022/10/29 01:22:34;;;;;;;6.28;2.33;;;15.20;75.60;;;;;;4944098;28;20051;-75
2022/10/29 01:25:03;;;;;;;6.85;1.67;;;15.20;75.60;;;;;;4899904;29;20105;-76
2022/10/29 01:27:48;;;;;;;6.88;1.83;;;15.20;75.50;;;;;;4940880;28;20047;-76
2022/10/29 01:30:36;;;;;;;6.95;1.90;;;15.20;75.60;;;;;;4935346;28;20546;-76
2022/10/29 01:33:06;;;;;;;7.60;2.40;;;15.20;75.60;;;;;;4936922;28;20042;-76
2022/10/29 01:35:47;;;;;;;5.57;1.65;;;15.20;75.60;;;;;;4945967;28;20035;-75
2022/10/29 01:38:23;;;;;;;5.70;1.80;;;15.20;75.70;;;;;;4945658;29;20031;-76
2022/10/29 01:41:30;;;;;;;10.70;3.38;;;15.20;75.70;;;;;;4945394;28;20529;-76
2022/10/29 01:44:06;;;;;;;7.00;1.88;;;15.20;75.80;;;;;;4866557;29;20052;-76
2022/10/29 01:46:39;;;;;;;7.30;2.35;;;15.20;75.70;;;;;;4928232;29;20063;-76
2022/10/29 01:49:13;;;;;;;6.90;1.90;;;15.10;75.50;;;;;;4948823;29;20493;-76
2022/10/29 01:51:41;;;;;;;6.70;1.60;;;15.10;75.60;;;;;;4949678;28;20035;-76
2022/10/29 01:54:10;;;;;;;11.63;2.65;;;15.10;75.60;;;;;;4949478;28;20394;-75
2022/10/29 01:56:36;;;;;;;5.78;1.50;;;15.10;75.60;;;;;;4947910;28;20027;-76
2022/10/29 01:59:05;;;;;;;9.95;2.50;;;15.10;75.60;;;;;;4944585;29;20098;-76
2022/10/29 02:01:34;;;;;;;4.22;1.88;;;15.10;75.60;;;;;;4948547;28;20043;-76
2022/10/29 02:04:07;;;;;;;4.25;1.63;;;15.10;75.70;;;;;;4952854;29;20039;-76
2022/10/29 02:06:33;;;;;;;;;;;15.10;75.70;;;;;;4942022;29;20039;-76
2022/10/29 02:09:27;;;;;;;9.82;2.95;;;15.20;75.90;;;;;;4952233;29;20357;-75
2022/10/29 02:12:21;;;;;;;6.13;1.85;;;15.10;75.60;;;;;;4940357;29;20047;-76
2022/10/29 02:14:49;;;;;;;;;;;15.10;75.70;;;;;;4950175;29;20629;-76
2022/10/29 02:17:15;;;;;;;6.43;1.75;;;15.10;75.60;;;;;;4943586;29;19936;-76
2022/10/29 02:19:41;;;;;;;7.60;2.13;;;15.10;75.60;;;;;;4952155;28;20483;-75
2022/10/29 02:22:06;;;;;;;7.50;2.28;;;15.20;75.80;;;;;;4952897;28;20410;-76
2022/10/29 02:24:32;;;;;;;6.28;2.15;;;15.20;75.80;;;;;;4932365;29;20557;-76
2022/10/29 02:26:58;;;;;;;8.65;1.88;;;15.20;75.90;;;;;;4950323;28;20486;-76
2022/10/29 02:29:24;;;;;;;6.65;1.67;;;15.20;75.90;;;;;;4949571;28;20084;-76
2022/10/29 02:31:50;;;;;;;8.77;1.95;;;15.20;75.90;;;;;;4949253;29;20487;-76
2022/10/29 02:34:16;;;;;;;3.92;2.00;;;15.20;75.90;;;;;;4952472;28;20035;-75
2022/10/29 02:36:42;;;;;;;6.70;1.95;;;15.20;75.90;;;;;;4931222;29;20046;-76
2022/10/29 02:39:07;;;;;;;7.38;2.03;;;15.20;75.90;;;;;;4950832;29;20693;-77
2022/10/29 02:41:33;;;;;;;6.75;2.03;;;15.20;75.90;;;;;;4950219;29;20171;-76
2022/10/29 02:43:59;;;;;;;7.93;2.35;;;15.20;76.00;;;;;;4951004;28;20058;-76
2022/10/29 02:46:25;;;;;;;7.80;1.92;;;15.20;76.00;;;;;;4947812;28;20044;-76
2022/10/29 02:48:51;;;;;;;5.13;1.60;;;15.20;76.00;;;;;;4949589;29;20492;-75
2022/10/29 02:51:17;;;;;;;7.85;2.08;;;15.20;76.00;;;;;;4952435;28;20033;-75
2022/10/29 02:53:43;;;;;;;12.60;2.72;;;15.20;76.60;;;;;;4950345;29;20031;-76
2022/10/29 02:56:10;;;;;;;6.03;1.98;;;15.20;76.10;;;;;;4951862;28;20050;-75
2022/10/29 02:58:36;;;;;;;6.45;2.40;;;15.20;76.20;;;;;;4938689;29;20019;-76
2022/10/29 03:01:03;;;;;;;8.13;2.45;;;15.20;76.20;;;;;;4943523;28;20043;-76
2022/10/29 03:03:29;;;;;;;8.20;2.00;;;15.20;76.30;;;;;;4929000;29;20028;-75
2022/10/29 03:05:55;;;;;;;5.07;1.80;;;15.20;76.30;;;;;;4907033;29;20094;-76
2022/10/29 03:08:20;;;;;;;6.68;2.72;;;15.20;76.30;;;;;;4949993;28;20043;-75
2022/10/29 03:10:46;;;;;;;8.43;2.63;;;15.20;76.30;;;;;;4952054;29;20521;-76
2022/10/29 03:13:13;;;;;;;8.15;3.22;;;15.20;76.30;;;;;;4909159;28;20040;-76
2022/10/29 03:15:43;;;;;;;7.45;2.20;;;15.20;76.30;;;;;;4945488;28;20484;-76
2022/10/29 03:18:09;;;;;;;10.13;2.47;;;15.20;76.40;;;;;;4938663;29;20031;-76
2022/10/29 03:20:35;;;;;;;6.53;2.30;;;15.20;76.30;;;;;;4951811;29;20039;-75
2022/10/29 03:23:01;;;;;;;7.47;1.85;;;15.20;76.40;;;;;;4918730;29;20418;-76
2022/10/29 03:25:27;;;;;;;5.47;2.15;;;15.20;76.30;;;;;;4934737;28;20387;-75
2022/10/29 03:27:53;;;;;;;6.45;2.08;;;15.20;76.40;;;;;;4938417;29;20039;-76
2022/10/29 03:30:19;;;;;;;6.43;2.03;;;15.20;76.40;;;;;;4933818;29;20035;-76
2022/10/29 03:32:47;;;;;;;6.25;2.35;;;15.20;76.40;;;;;;4950062;29;20042;-75
2022/10/29 03:35:14;;;;;;;4.18;1.50;;;15.20;76.50;;;;;;4941831;28;20036;-76
2022/10/29 03:37:40;;;;;;;4.75;1.77;;;15.30;76.70;;;;;;4950528;28;20033;-76
2022/10/29 03:40:07;;;;;;;4.95;2.72;;;15.30;76.80;;;;;;4933255;29;20035;-76
2022/10/29 03:42:33;;;;;;;5.55;2.10;;;15.30;76.80;;;;;;4949936;28;20031;-76
2022/10/29 03:45:00;;;;;;;6.18;2.28;;;15.30;76.80;;;;;;4951574;29;20027;-77
2022/10/29 03:47:27;;;;;;;6.78;2.03;;;15.30;76.80;;;;;;4931909;29;20394;-76
2022/10/29 03:49:53;;;;;;;5.82;2.75;;;15.30;76.80;;;;;;4933783;29;20375;-76
2022/10/29 03:52:19;;;;;;;4.30;1.80;;;15.40;77.00;;;;;;4932207;29;20131;-76
2022/10/29 03:54:45;;;;;;;8.13;2.47;;;15.40;77.00;;;;;;4947569;29;20035;-75
2022/10/29 03:57:11;;;;;;;7.28;2.80;;;15.40;77.00;;;;;;4928592;29;20023;-76
2022/10/29 03:59:37;;;;;;;5.07;2.58;;;15.40;77.00;;;;;;4943386;28;20037;-76
2022/10/29 04:02:03;;;;;;;4.97;1.85;;;15.40;77.00;;;;;;4948642;29;20039;-76
2022/10/29 04:04:29;;;;;;;3.28;2.22;;;15.40;77.00;;;;;;4951073;29;20031;-76
2022/10/29 04:06:55;;;;;;;4.93;2.03;;;15.50;77.20;;;;;;4942459;28;20635;-76
2022/10/29 04:09:20;;;;;;;3.85;2.30;;;15.50;77.20;;;;;;4949733;29;20035;-76
2022/10/29 04:11:46;;;;;;;5.13;2.80;;;15.50;77.20;;;;;;4949341;29;20587;-76
2022/10/29 04:14:12;;;;;;;3.47;1.90;;;15.50;77.60;;;;;;4949223;28;20678;-76
2022/10/29 04:16:38;;;;;;;7.45;2.45;;;15.50;77.10;;;;;;4950303;29;20491;-75
2022/10/29 04:19:04;;;;;;;4.03;1.80;;;15.60;77.30;;;;;;4937164;28;20038;-76
2022/10/29 04:21:30;;;;;;;5.50;2.20;;;15.50;77.10;;;;;;4944785;29;20023;-75
2022/10/29 04:23:56;;;;;;;4.03;2.10;;;15.60;77.30;;;;;;4932899;29;20039;-75
2022/10/29 04:26:22;;;;;;;5.43;2.40;;;15.60;77.30;;;;;;4950262;29;20438;-74
2022/10/29 04:28:49;;;;;;;5.68;2.25;;;15.60;77.30;;;;;;4945864;29;20051;-75
2022/10/29 04:31:15;;;;;;;5.07;2.20;;;15.60;77.40;;;;;;4938185;29;20035;-75
2022/10/29 04:33:41;;;;;;;5.22;2.47;;;15.60;77.40;;;;;;4949253;28;20558;-74
2022/10/29 04:36:07;;;;;;;5.05;2.35;;;15.70;77.60;;;;;;4923140;29;20164;-76
2022/10/29 04:38:33;;;;;;;4.22;2.53;;;15.60;77.40;;;;;;4941815;28;20499;-75
2022/10/29 04:41:00;;;;;;;8.70;2.50;;;15.60;77.40;;;;;;4946807;28;20041;-75
2022/10/29 04:43:29;;;;;;;4.53;2.72;;;15.70;77.60;;;;;;4950353;29;20059;-75
2022/10/29 04:45:57;;;;;;;5.85;2.53;;;15.70;77.70;;;;;;4950565;28;20036;-75
2022/10/29 04:48:25;;;;;;;6.47;2.63;;;15.70;77.60;;;;;;4944341;29;20658;-75
2022/10/29 04:50:51;;;;;;;3.92;1.90;;;15.70;77.60;;;;;;4923393;29;20394;-75
2022/10/29 04:53:18;;;;;;;3.13;1.88;;;15.70;77.60;;;;;;4946644;28;20192;-75
2022/10/29 04:55:45;;;;;;;4.00;2.20;;;15.70;77.70;;;;;;4929105;29;20050;-74
2022/10/29 04:58:18;;;;;;;3.05;2.28;;;15.70;77.70;;;;;;4942787;29;20046;-74
2022/10/29 05:00:45;;;;;;;4.07;2.13;;;15.70;77.80;;;;;;4946190;28;20032;-74
2022/10/29 05:03:11;;;;;;;2.78;2.13;;;15.70;77.80;;;;;;4942239;29;20046;-74
2022/10/29 05:05:38;;;;;;;3.72;2.20;;;15.70;77.80;;;;;;4929749;29;20431;-75
2022/10/29 05:08:05;;;;;;;3.58;2.17;;;15.70;77.80;;;;;;4941343;28;20031;-77
2022/10/29 05:10:36;;;;;;;4.85;2.03;;;15.70;78.10;;;;;;4945216;29;20042;-79
2022/10/29 05:13:09;;;;;;;4.70;2.35;;;15.70;77.90;;;;;;4939154;29;20031;-79
2022/10/29 05:15:35;;;;;;;3.75;2.10;;;15.70;78.00;;;;;;4939626;28;20034;-76
2022/10/29 05:18:01;;;;;;;5.47;2.40;;;15.70;78.00;;;;;;4926395;28;20143;-77
2022/10/29 05:20:28;;;;;;;3.53;1.85;;;15.60;77.90;;;;;;4939790;29;20023;-77
2022/10/29 05:22:58;;;;;;;6.78;2.47;;;15.70;78.10;;;;;;4942963;28;20120;-80
2022/10/29 05:25:24;;;;;;;3.78;2.38;;;15.70;78.20;;;;;;4928234;29;20038;-74
2022/10/29 05:28:00;;;;;;;6.13;1.95;;;15.60;78.00;;;;;;4937095;28;20525;-77
2022/10/29 05:30:26;;;;;;;5.00;2.10;;;15.70;78.30;;;;;;4920137;29;20447;-76
2022/10/29 05:32:52;;;;;;;3.40;1.65;;;15.70;78.20;;;;;;4943169;29;20036;-75
2022/10/29 05:35:18;;;;;;;2.38;1.85;;;15.70;78.20;;;;;;4926043;29;20042;-77
2022/10/29 05:37:50;;;;;;;1.98;1.40;;;15.70;78.20;;;;;;4943941;29;20341;-77
2022/10/29 05:40:16;;;;;;;2.30;1.60;;;15.70;78.30;;;;;;4926592;29;20061;-76
2022/10/29 05:42:42;;;;;;;4.22;1.70;;;15.70;78.20;;;;;;4945607;29;20499;-76
2022/10/29 05:45:08;;;;;;;4.18;1.98;;;15.70;78.20;;;;;;4921432;28;20034;-78
2022/10/29 05:47:34;;;;;;;3.75;1.50;;;15.80;78.40;;;;;;4938678;28;20058;-75
2022/10/29 05:50:00;;;;;;;3.78;1.52;;;15.80;78.40;;;;;;4943132;29;20502;-79
2022/10/29 05:52:26;;;;;;;2.47;1.52;;;15.80;78.40;;;;;;4926493;29;20038;-77
2022/10/29 05:54:52;;;;;;;3.45;1.45;;;15.80;78.40;;;;;;4944467;29;20153;-76
2022/10/29 05:57:19;;;;;;;4.47;1.60;;;15.80;78.90;;;;;;4910477;29;20079;-77
2022/10/29 05:59:45;;;;;;;2.47;1.65;;;15.80;78.40;;;;;;4944755;29;20023;-75
2022/10/29 06:02:11;;;;;;;1.67;1.30;;;15.80;78.50;;;;;;4943957;29;20043;-77
2022/10/29 06:04:37;;;;;;;6.80;1.85;;;15.80;78.60;;;;;;4909452;29;20035;-80
2022/10/29 06:07:03;;;;;;;4.20;2.00;;;15.90;78.80;;;;;;4911164;29;20572;-79
2022/10/29 06:09:29;;;;;;;7.40;1.67;;;15.90;78.80;;;;;;4944449;29;20027;-83
2022/10/29 06:11:55;;;;;;;5.35;1.73;;;15.90;79.10;;;;;;4927056;29;20042;-83
2022/10/29 06:14:21;;;;;;;5.20;1.90;;;16.00;79.30;;;;;;4928184;29;20031;-82
2022/10/29 06:16:47;;;;;;;5.78;1.90;;;16.00;79.50;;;;;;4944432;29;20487;-73
2022/10/29 06:19:13;;;;;;;8.15;2.83;;;16.10;79.70;;;;;;4944050;28;20055;-81
2022/10/29 06:21:39;;;;;;;5.07;2.03;;;16.10;79.70;;;;;;4942842;28;20072;-78
2022/10/29 06:24:05;;;;;;;6.78;2.17;;;16.20;80.00;;;;;;4937166;29;20054;-78
2022/10/29 06:26:32;;;;;;;4.82;2.40;;;16.30;80.50;;;;;;4945216;29;20042;-77
2022/10/29 06:28:59;;;;;;;4.63;2.65;;;16.40;80.90;;;;;;4926885;29;20569;-74
2022/10/29 06:31:25;;;;;;;5.72;2.60;;;16.50;81.20;;;;;;4945252;29;20394;-73
2022/10/29 06:33:50;;;;;;;5.18;2.47;;;16.70;81.60;;;;;;4923393;29;20035;-73
2022/10/29 06:36:16;;;;;;;5.32;2.20;;;16.80;81.80;;;;;;4937902;28;20044;-73
2022/10/29 06:38:42;;;;;;;7.20;2.50;;;16.90;82.10;;;;;;4939290;29;20044;-74
2022/10/29 06:41:08;;;;;;;7.25;2.85;;;17.00;82.30;;;;;;4945944;28;20204;-74
2022/10/29 06:43:34;;;;;;;10.10;2.72;;;17.00;82.30;;;;;;4948297;29;20027;-74
2022/10/29 06:46:00;;;;;;;9.05;2.90;;;17.10;82.60;;;;;;4948858;28;20027;-75
2022/10/29 06:48:26;;;;;;;6.60;2.30;;;17.20;82.80;;;;;;4928981;29;20039;-74
2022/10/29 06:50:52;;;;;;;6.60;2.45;;;17.30;83.00;;;;;;4929119;29;20360;-74
2022/10/29 06:53:18;;;;;;;4.88;2.65;;;17.40;83.30;;;;;;4943854;29;20035;-74
2022/10/29 06:55:44;;;;;;;5.68;2.45;;;17.50;83.50;;;;;;4945515;29;20027;-74
2022/10/29 06:58:12;;;;;;;4.40;1.92;;;17.50;84.00;;;;;;4945810;28;20039;-74
2022/10/29 07:00:39;;;;;;;7.93;2.47;;;17.60;83.70;;;;;;4940436;28;20058;-74
2022/10/29 07:03:06;;;;;;;3.75;1.80;;;17.70;83.80;;;;;;4922976;29;20031;-76
2022/10/29 07:05:33;;;;;;;6.47;2.45;;;17.70;83.70;;;;;;4937302;29;20054;-78
2022/10/29 07:08:00;;;;;;;5.85;2.33;;;17.80;83.90;;;;;;4943600;28;20034;-78
2022/10/29 07:10:29;;;;;;;4.55;2.15;;;17.80;83.80;;;;;;4947733;28;20019;-76
2022/10/29 07:12:55;;;;;;;6.95;2.38;;;17.90;83.80;;;;;;4945279;28;20024;-76
2022/10/29 07:15:21;;;;;;;4.20;2.00;;;17.90;83.70;;;;;;4920814;29;20039;-76
2022/10/29 07:18:04;;;;;;;6.13;1.98;;;17.90;83.60;;;;;;4918912;29;20454;-76
2022/10/29 07:20:32;;;;;;;6.57;1.90;;;17.80;83.80;;;;;;4918548;29;20043;-76
2022/10/29 07:23:00;;;;;;;5.63;1.83;;;17.80;83.20;;;;;;4934443;28;20435;-78
2022/10/29 07:25:27;;;;;;;4.13;1.83;;;17.80;83.10;;;;;;4937451;29;20028;-76
2022/10/29 07:27:53;;;;;;;2.90;1.70;;;17.80;83.00;;;;;;4935789;28;20409;-76
2022/10/29 07:30:19;;;;;;;4.97;2.05;;;17.70;82.70;;;;;;4936166;29;20038;-76
2022/10/29 07:32:45;;;;;;;3.50;1.95;;;17.80;82.80;;;;;;4933559;28;20024;-75
2022/10/29 07:35:11;;;;;;;4.50;2.20;;;17.70;82.60;;;;;;4932685;29;20115;-76
2022/10/29 07:37:37;;;;;;;5.20;2.20;;;17.70;82.50;;;;;;4946448;28;20537;-76
2022/10/29 07:40:04;;;;;;;6.22;2.40;;;17.60;82.40;;;;;;4930162;29;20437;-77
2022/10/29 07:42:30;;;;;;;7.50;2.08;;;17.60;82.30;;;;;;4927586;29;20051;-76
2022/10/29 07:44:55;;;;;;;4.82;1.98;;;17.60;82.30;;;;;;4939386;28;20619;-76
2022/10/29 07:47:21;;;;;;;4.82;1.80;;;17.60;82.30;;;;;;4928041;29;20031;-76
2022/10/29 07:49:47;;;;;;;7.30;2.75;;;17.50;82.00;;;;;;4946558;29;20035;-75
2022/10/29 07:52:13;;;;;;;4.93;2.17;;;17.50;82.00;;;;;;4935776;28;20061;-76
2022/10/29 07:54:39;;;;;;;4.78;1.92;;;17.50;81.90;;;;;;4946177;28;20068;-76
2022/10/29 07:57:05;;;;;;;5.65;2.28;;;17.60;82.00;;;;;;4938189;29;20541;-76
2022/10/29 07:59:30;;;;;;;6.13;2.38;;;17.50;81.80;;;;;;4943054;29;20481;-75
2022/10/29 08:01:56;;;;;;;6.40;2.40;;;17.50;81.70;;;;;;4928544;29;20265;-75
2022/10/29 08:04:22;;;;;;;5.90;2.20;;;17.50;81.70;;;;;;4947716;29;20027;-76
2022/10/29 08:06:48;;;;;;;4.78;2.35;;;17.60;81.80;;;;;;4940294;28;20121;-76
2022/10/29 08:09:14;;;;;;;6.40;2.10;;;17.60;82.30;;;;;;4931940;29;20039;-76
2022/10/29 08:11:40;;;;;;;5.95;2.60;;;17.60;81.60;;;;;;4923374;29;20023;-75
2022/10/29 08:14:06;;;;;;;4.60;1.98;;;17.60;81.50;;;;;;4921622;29;20034;-74
2022/10/29 08:16:32;;;;;;;4.75;2.55;;;17.70;81.50;;;;;;4941944;28;20032;-76
2022/10/29 08:18:58;;;;;;;5.95;2.55;;;17.70;81.40;;;;;;4919826;29;20032;-75
2022/10/29 08:21:23;;;;;;;8.65;2.85;;;17.70;81.30;;;;;;4946426;28;20249;-75
2022/10/29 08:23:49;;;;;;;6.22;2.15;;;17.80;81.40;;;;;;4928385;28;20035;-75
2022/10/29 08:26:15;;;;;;;6.72;2.80;;;17.80;81.30;;;;;;4940527;28;20109;-75
2022/10/29 08:28:44;;;;;;;7.32;2.85;;;17.80;81.20;;;;;;4944823;28;20110;-75
2022/10/29 08:31:10;;;;;;;4.45;2.17;;;17.90;81.30;;;;;;4947036;29;20027;-76
2022/10/29 08:33:36;;;;;;;5.40;2.35;;;17.90;81.30;;;;;;4941773;29;20089;-76
2022/10/29 08:36:01;;;;;;;7.28;2.67;;;17.90;81.20;;;;;;4947130;28;20046;-75
2022/10/29 08:38:27;;;;;;;6.13;2.65;;;17.90;81.10;;;;;;4941755;28;20491;-76
2022/10/29 08:41:16;;;;;;;6.13;2.45;;;17.90;81.10;;;;;;4946623;29;20027;-75
2022/10/29 08:44:00;;;;;;;5.30;3.03;;;18.00;81.10;;;;;;4946522;29;20035;-75
2022/10/29 08:46:49;;;;;;;8.07;2.70;;;18.00;81.00;;;;;;4945484;28;20027;-75
2022/10/29 08:49:27;;;;;;;5.68;2.55;;;18.00;80.90;;;;;;4939815;29;20719;-75
2022/10/29 08:52:03;;;;;;;4.60;2.55;;;18.00;80.90;;;;;;4945132;29;20094;-76
2022/10/29 08:54:32;;;;;;;5.78;2.20;;;18.00;80.80;;;;;;4946872;29;20047;-76
2022/10/29 08:57:07;;;;;;;5.28;3.22;;;18.00;80.70;;;;;;4927790;28;20438;-76
2022/10/29 08:59:40;;;;;;;9.82;3.78;;;18.10;80.90;;;;;;4925104;29;20451;-75
2022/10/29 09:02:13;;;;;;;3.30;2.15;;;18.10;80.80;;;;;;4927607;29;20047;-75
2022/10/29 09:04:39;;;;;;;5.30;2.25;;;18.10;80.70;;;;;;4945614;28;20022;-75
2022/10/29 09:07:20;;;;;;;6.18;2.45;;;18.20;80.80;;;;;;4927513;29;20395;-75
2022/10/29 09:10:00;;;;;;;7.95;3.67;;;18.30;80.80;;;;;;4944314;28;20026;-75
2022/10/29 09:13:00;;;;;;;8.32;2.95;;;18.30;80.60;;;;;;4946270;29;20035;-75
2022/10/29 09:15:41;;;;;;;5.55;2.47;;;18.40;80.50;;;;;;4946210;29;20031;-75
2022/10/29 09:18:29;;;;;;;2.83;1.95;;;18.40;80.30;;;;;;4943613;29;20035;-75
2022/10/29 09:21:29;;;;;;;7.80;2.85;;;18.50;80.30;;;;;;4933892;29;20030;-75
2022/10/29 09:24:13;;;;;;;4.90;2.25;;;18.60;80.20;;;;;;4945817;28;20043;-75
2022/10/29 09:27:11;;;;;;;6.78;2.35;;;18.70;80.10;;;;;;4940384;29;20498;-77
2022/10/29 09:30:01;;;;;;;8.63;3.28;;;18.90;80.20;;;;;;4927229;28;20451;-75
2022/10/29 09:32:39;;;;;;;9.75;2.67;;;19.00;80.00;;;;;;4934828;29;20031;-75
2022/10/29 09:35:14;;;;;;;5.82;2.08;;;19.10;79.90;;;;;;4937925;29;20039;-75
2022/10/29 09:37:57;;;;;;;5.85;2.72;;;19.20;79.80;;;;;;4925930;29;20113;-75
2022/10/29 09:40:31;;;;;;;6.63;2.03;;;19.30;79.70;;;;;;4940546;29;20035;-75
2022/10/29 09:42:59;;;;;;;4.60;1.52;;;19.40;79.60;;;;;;4944046;29;20067;-75
2022/10/29 09:45:51;;;;;;;4.43;2.20;;;19.50;79.50;;;;;;4939019;28;20503;-75
2022/10/29 09:48:46;;;;;;;5.68;2.10;;;19.60;79.30;;;;;;4935770;28;20039;-75
2022/10/29 09:51:27;;;;;;;4.75;1.88;;;19.70;79.30;;;;;;4936949;28;20035;-75
2022/10/29 09:53:53;;;;;;;4.00;1.73;;;19.80;79.20;;;;;;4912492;29;20031;-75
2022/10/29 09:56:19;;;;;;;4.88;1.90;;;20.00;79.20;;;;;;4944337;29;20043;-76
2022/10/29 09:58:51;;;;;;;4.80;2.22;;;20.00;78.90;;;;;;4938191;28;20118;-75
2022/10/29 10:01:18;;;;;;;5.25;1.92;;;20.20;78.90;;;;;;4928615;28;20483;-75
2022/10/29 10:03:51;;;;;;;4.43;2.25;;;20.30;78.80;;;;;;4941899;28;20098;-75
2022/10/29 10:06:17;;;;;;;7.95;2.78;;;20.40;78.60;;;;;;4907032;28;20054;-75
2022/10/29 10:09:04;;;;;;;3.50;1.60;;;20.50;78.40;;;;;;4945561;29;20055;-76
2022/10/29 10:11:39;;;;;;;4.90;1.83;;;20.60;78.20;;;;;;4937731;29;20035;-76
2022/10/29 10:14:26;;;;;;;3.13;1.45;;;20.70;78.10;;;;;;4928426;29;20596;-75
2022/10/29 10:17:00;;;;;;;3.65;2.13;;;20.80;77.80;;;;;;4937625;28;20034;-75
2022/10/29 10:19:29;;;;;;;4.75;2.22;;;21.00;77.80;;;;;;4935177;28;20479;-75
2022/10/29 10:22:04;;;;;;;3.38;1.92;;;21.10;78.20;;;;;;4947822;28;20043;-76
2022/10/29 10:24:37;;;;;;;3.78;1.58;;;21.20;77.40;;;;;;4929629;28;20031;-75
2022/10/29 10:27:28;;;;;;;3.95;1.75;;;21.30;77.30;;;;;;4945529;28;20027;-75
2022/10/29 10:30:10;;;;;;;2.33;1.60;;;21.40;77.00;;;;;;4946305;28;20035;-76
2022/10/29 10:32:36;;;;;;;3.50;1.48;;;21.50;76.90;;;;;;4929759;29;20034;-75
2022/10/29 10:35:20;;;;;;;3.92;2.22;;;21.60;76.90;;;;;;4931303;29;20028;-75
2022/10/29 10:37:46;;;;;;;3.88;1.50;;;21.70;76.70;;;;;;4919239;29;20031;-76
2022/10/29 10:40:21;;;;;;;4.18;1.55;;;21.80;76.60;;;;;;4947100;29;20117;-76
2022/10/29 10:42:47;;;;;;;4.25;1.85;;;22.00;76.60;;;;;;4935786;28;20044;-75
2022/10/29 10:45:15;;;;;;;3.55;1.58;;;22.00;76.30;;;;;;4947992;28;20054;-77
2022/10/29 10:47:50;;;;;;;3.50;1.50;;;22.10;76.20;;;;;;4938395;29;20051;-80
2022/10/29 10:50:25;;;;;;;4.85;1.33;;;22.20;76.00;;;;;;4923436;29;20031;-77
2022/10/29 10:52:56;;;;;;;4.00;1.77;;;22.30;76.00;;;;;;4948184;29;20035;-83
2022/10/29 10:55:30;;;;;;;5.35;2.47;;;22.40;76.10;;;;;;4948844;28;20094;-83
2022/10/29 10:58:21;;;;;;;5.38;1.58;;;22.50;76.10;;;;;;4946479;29;20829;-86
2022/10/29 11:00:59;;;;;;;7.95;2.10;;;22.70;76.20;;;;;;4939712;29;20023;-87
2022/10/29 11:03:39;;;;;;;3.53;1.90;;;22.80;76.20;;;;;;4925411;29;20074;-83
2022/10/29 11:06:28;;;;;;;6.38;1.98;;;22.90;76.20;;;;;;4949726;29;20483;-81
2022/10/29 11:09:13;;;;;;;5.50;1.80;;;23.10;76.20;;;;;;4939425;28;20061;-82
2022/10/29 11:11:43;;;;;;;2.83;1.58;;;23.30;76.10;;;;;;4947523;29;20023;-83
2022/10/29 11:14:14;;;;;;;6.05;2.88;;;23.40;75.80;;;;;;4942349;29;20031;-87
2022/10/29 11:16:47;;;;;;;5.47;1.88;;;23.60;75.90;;;;;;4931332;29;20050;-81
2022/10/29 11:19:27;;;;;;;;;;;23.70;75.80;;;;;;4949036;29;20046;-81
2022/10/29 11:22:03;;;;;;;5.35;2.17;;;23.90;75.90;;;;;;4915437;29;20643;-92
2022/10/29 11:24:36;;;;;;;3.35;1.50;;;24.00;75.70;;;;;;4932717;29;20070;-83
2022/10/29 11:27:24;;;;;;;7.22;2.22;;;24.10;75.40;;;;;;4932608;28;20132;-81
2022/10/29 11:30:09;;;;;;;3.15;1.67;;;24.20;75.30;;;;;;4949592;29;20233;-79
2022/10/29 11:32:57;;;;;;;7.72;1.83;;;24.20;74.90;;;;;;4942825;29;20499;-74
2022/10/29 11:35:37;;;;;;;4.25;1.70;;;24.30;74.80;;;;;;4945021;29;20023;-75
2022/10/29 11:38:12;;;;;;;3.33;1.60;;;24.40;75.00;;;;;;4950817;28;20030;-76
2022/10/29 11:40:50;;;;;;;6.15;2.85;;;24.40;74.80;;;;;;4934899;29;20031;-81
2022/10/29 11:43:19;;;;;;;3.85;1.77;;;24.50;74.70;;;;;;4936685;29;20043;-82
2022/10/29 11:46:07;;;;;;;4.05;2.03;;;24.50;74.40;;;;;;4944622;28;20031;-78
2022/10/29 11:48:47;;;;;;;3.20;1.85;;;24.70;74.20;;;;;;4941448;28;20108;-80
2022/10/29 11:51:30;;;;;;;5.35;2.20;;;24.80;74.20;;;;;;4929427;29;20031;-79
2022/10/29 11:54:20;;;;;;;6.97;2.25;;;24.90;73.90;;;;;;4926014;28;21106;-79
2022/10/29 11:56:55;;;;;;;4.72;2.42;;;25.00;73.80;;;;;;4920631;29;20050;-79
2022/10/29 11:59:49;;;;;;;4.07;1.98;;;25.10;73.70;;;;;;4934698;29;20129;-79
2022/10/29 12:02:36;;;;;;;6.20;2.42;;;25.10;73.60;;;;;;4931248;29;20092;-77
2022/10/29 12:05:32;;;;;;;4.07;2.88;;;25.10;73.80;;;;;;4909434;29;20046;-77
2022/10/29 12:08:17;;;;;;;18.52;4.88;;;25.10;73.80;;;;;;4929872;29;20043;-77
2022/10/29 12:10:54;;;;;;;11.25;4.43;;;25.10;74.00;;;;;;4947498;28;20404;-78
2022/10/29 12:13:35;;;;;;;6.65;3.90;;;25.20;74.20;;;;;;4938161;29;20043;-78
2022/10/29 12:16:29;;;;;;;4.53;2.90;;;25.20;74.20;;;;;;4947855;28;20027;-82
2022/10/29 12:19:01;;;;;;;9.80;3.95;;;25.20;74.20;;;;;;4940771;29;20039;-82
2022/10/29 12:21:48;;;;;;;7.22;3.33;;;25.20;74.30;;;;;;4929966;29;20457;-84
2022/10/29 12:24:36;;;;;;;6.10;3.33;;;25.20;74.20;;;;;;4944920;28;20035;-86
2022/10/29 12:27:35;;;;;;;8.27;3.78;;;25.30;74.10;;;;;;4946033;28;20042;-81
2022/10/29 12:30:04;;;;;;;5.30;2.38;;;25.40;74.00;;;;;;4944460;29;20109;-80
2022/10/29 12:32:37;;;;;;;4.43;2.65;;;25.50;74.00;;;;;;4924092;29;20216;-81
2022/10/29 12:35:42;;;;;;;7.50;2.58;;;25.60;73.80;;;;;;4939351;29;20483;-79
2022/10/29 12:38:19;;;;;;;7.15;2.60;;;25.70;73.40;;;;;;4930295;29;20045;-82
2022/10/29 12:40:50;;;;;;;6.57;2.10;;;25.80;73.40;;;;;;4913302;29;20057;-83
2022/10/29 12:43:24;;;;;;;5.95;2.38;;;25.90;73.20;;;;;;4930740;29;20351;-81
2022/10/29 12:46:03;;;;;;;4.38;2.33;;;25.90;72.90;;;;;;4928358;28;20105;-76
2022/10/29 12:48:48;;;;;;;6.70;2.13;;;26.00;72.80;;;;;;4943358;29;20394;-76
2022/10/29 12:51:48;;;;;;;4.72;2.40;;;26.00;72.60;;;;;;4946056;28;20081;-75
2022/10/29 12:54:40;;;;;;;3.75;1.95;;;26.00;72.40;;;;;;4915098;29;20054;-82
2022/10/29 12:57:26;;;;;;;4.22;2.00;;;26.00;72.30;;;;;;4944534;28;20035;-83
2022/10/29 12:59:52;;;;;;;6.00;1.88;;;26.00;72.30;;;;;;4941063;28;20222;-82
2022/10/29 13:02:24;;;;;;;4.85;1.77;;;25.90;72.40;;;;;;4928583;29;20558;-82
2022/10/29 13:05:08;;;;;;;4.78;1.85;;;25.90;72.20;;;;;;4941786;29;20027;-85
2022/10/29 13:07:35;;;;;;;5.97;2.20;;;25.90;72.10;;;;;;4946310;28;20035;-77
2022/10/29 13:10:23;;;;;;;7.53;2.42;;;25.90;72.30;;;;;;4945801;29;20062;-76
2022/10/29 13:13:15;;;;;;;4.15;2.05;;;25.90;71.60;;;;;;4945558;29;20051;-75